sensor_id;sensor_type;location;lat;lon;timestamp;pressure;altitude;pressure_sealevel;temperature;humidity
70730;BME280;58315;53.336;55.932;2022-11-15T00:00:35;97961.75;;;-1.33;57.59
70730;BME280;58315;53.336;55.932;2022-11-15T00:03:21;97970.47;;;-1.09;57.79
70730;BME280;58315;53.336;55.932;2022-11-15T00:06:06;97978.16;;;-1.20;57.58
70730;BME280;58315;53.336;55.932;2022-11-15T00:08:51;97956.16;;;-1.40;57.94
70730;BME280;58315;53.336;55.932;2022-11-15T00:11:35;97970.69;;;-1.37;58.26
70730;BME280;58315;53.336;55.932;2022-11-15T00:14:19;97975.22;;;-1.54;58.18
70730;BME280;58315;53.336;55.932;2022-11-15T00:17:03;97981.13;;;-1.52;58.38
70730;BME280;58315;53.336;55.932;2022-11-15T00:19:47;97970.06;;;-1.41;58.49
70730;BME280;58315;53.336;55.932;2022-11-15T00:22:33;97986.22;;;-1.37;58.04
70730;BME280;58315;53.336;55.932;2022-11-15T00:25:18;97982.91;;;-1.39;58.09
70730;BME280;58315;53.336;55.932;2022-11-15T00:28:03;97999.22;;;-1.77;58.39
70730;BME280;58315;53.336;55.932;2022-11-15T00:30:47;97997.63;;;-1.53;58.64
70730;BME280;58315;53.336;55.932;2022-11-15T00:33:32;97986.22;;;-1.37;58.63
70730;BME280;58315;53.336;55.932;2022-11-15T00:36:17;97992.63;;;-1.43;58.32
70730;BME280;58315;53.336;55.932;2022-11-15T00:39:04;98004.56;;;-1.53;59.35
70730;BME280;58315;53.336;55.932;2022-11-15T00:41:49;98007.25;;;-1.55;60.00
70730;BME280;58315;53.336;55.932;2022-11-15T00:44:34;97999.38;;;-1.53;59.36
70730;BME280;58315;53.336;55.932;2022-11-15T00:47:18;98007.28;;;-1.42;59.05
70730;BME280;58315;53.336;55.932;2022-11-15T00:50:03;98003.44;;;-1.36;58.38
70730;BME280;58315;53.336;55.932;2022-11-15T00:52:47;98008.22;;;-1.30;58.48
70730;BME280;58315;53.336;55.932;2022-11-15T00:55:32;98008.81;;;-1.52;57.83
70730;BME280;58315;53.336;55.932;2022-11-15T00:58:16;98005.59;;;-1.56;57.96
70730;BME280;58315;53.336;55.932;2022-11-15T01:01:09;97993.50;;;-1.42;58.67
70730;BME280;58315;53.336;55.932;2022-11-15T01:03:54;98005.47;;;-1.54;58.47
70730;BME280;58315;53.336;55.932;2022-11-15T01:06:38;98018.34;;;-1.53;58.15
70730;BME280;58315;53.336;55.932;2022-11-15T01:09:22;98015.44;;;-1.35;58.46
70730;BME280;58315;53.336;55.932;2022-11-15T01:12:07;98021.13;;;-1.56;58.35
70730;BME280;58315;53.336;55.932;2022-11-15T01:14:51;98023.47;;;-1.65;58.74
70730;BME280;58315;53.336;55.932;2022-11-15T01:17:35;98021.44;;;-1.60;59.07
70730;BME280;58315;53.336;55.932;2022-11-15T01:20:20;98028.84;;;-1.68;59.08
70730;BME280;58315;53.336;55.932;2022-11-15T01:23:04;98033.69;;;-1.50;58.98
70730;BME280;58315;53.336;55.932;2022-11-15T01:25:49;98024.75;;;-1.58;58.71
70730;BME280;58315;53.336;55.932;2022-11-15T01:28:35;98024.34;;;-1.39;58.47
70730;BME280;58315;53.336;55.932;2022-11-15T01:31:21;98029.13;;;-1.46;58.26
70730;BME280;58315;53.336;55.932;2022-11-15T01:34:05;98027.63;;;-1.63;57.94
70730;BME280;58315;53.336;55.932;2022-11-15T01:36:50;98032.44;;;-1.57;57.81
70730;BME280;58315;53.336;55.932;2022-11-15T01:39:35;98035.28;;;-1.74;58.14
70730;BME280;58315;53.336;55.932;2022-11-15T01:42:19;98034.03;;;-1.68;58.77
70730;BME280;58315;53.336;55.932;2022-11-15T01:45:04;98039.44;;;-1.99;58.10
70730;BME280;58315;53.336;55.932;2022-11-15T01:47:52;98035.22;;;-1.87;58.88
70730;BME280;58315;53.336;55.932;2022-11-15T01:50:38;98038.88;;;-1.89;59.42
70730;BME280;58315;53.336;55.932;2022-11-15T01:53:23;98043.38;;;-1.66;59.06
70730;BME280;58315;53.336;55.932;2022-11-15T01:56:13;98036.06;;;-1.47;57.92
70730;BME280;58315;53.336;55.932;2022-11-15T01:59:03;98050.44;;;-1.55;57.78
70730;BME280;58315;53.336;55.932;2022-11-15T02:01:48;98047.16;;;-1.44;57.55
70730;BME280;58315;53.336;55.932;2022-11-15T02:04:37;98051.19;;;-1.40;57.81
70730;BME280;58315;53.336;55.932;2022-11-15T02:07:24;98053.34;;;-1.60;57.72
70730;BME280;58315;53.336;55.932;2022-11-15T02:10:17;98053.78;;;-1.53;57.76
70730;BME280;58315;53.336;55.932;2022-11-15T02:13:02;98057.91;;;-1.51;58.23
70730;BME280;58315;53.336;55.932;2022-11-15T02:19:08;98053.72;;;-1.13;58.04
70730;BME280;58315;53.336;55.932;2022-11-15T02:28:44;98068.63;;;-1.42;57.27
70730;BME280;58315;53.336;55.932;2022-11-15T02:46:57;98079.06;;;-1.44;57.63
70730;BME280;58315;53.336;55.932;2022-11-15T02:50:01;98080.72;;;-1.43;57.39
70730;BME280;58315;53.336;55.932;2022-11-15T02:52:48;98081.22;;;-1.51;57.91
70730;BME280;58315;53.336;55.932;2022-11-15T02:55:44;98087.78;;;-1.72;57.35
70730;BME280;58315;53.336;55.932;2022-11-15T02:59:00;98089.38;;;-1.70;57.89
70730;BME280;58315;53.336;55.932;2022-11-15T03:05:30;98100.03;;;-1.74;57.79
70730;BME280;58315;53.336;55.932;2022-11-15T03:11:15;98099.69;;;-1.82;57.36
70730;BME280;58315;53.336;55.932;2022-11-15T03:14:23;98110.31;;;-1.87;57.98
70730;BME280;58315;53.336;55.932;2022-11-15T03:17:33;98105.22;;;-1.61;57.77
70730;BME280;58315;53.336;55.932;2022-11-15T03:20:19;98111.88;;;-1.84;57.78
70730;BME280;58315;53.336;55.932;2022-11-15T03:23:09;98112.63;;;-1.82;57.84
70730;BME280;58315;53.336;55.932;2022-11-15T03:25:55;98113.94;;;-1.89;57.52
70730;BME280;58315;53.336;55.932;2022-11-15T03:28:46;98123.81;;;-1.55;57.86
70730;BME280;58315;53.336;55.932;2022-11-15T03:31:37;98133.69;;;-1.74;57.09
70730;BME280;58315;53.336;55.932;2022-11-15T03:34:53;98129.63;;;-1.78;57.24
70730;BME280;58315;53.336;55.932;2022-11-15T03:40:41;98141.53;;;-1.76;57.70
70730;BME280;58315;53.336;55.932;2022-11-15T03:49:35;98157.94;;;-1.75;57.28
70730;BME280;58315;53.336;55.932;2022-11-15T03:52:21;98161.09;;;-1.84;57.46
70730;BME280;58315;53.336;55.932;2022-11-15T03:55:09;98166.25;;;-1.84;57.75
70730;BME280;58315;53.336;55.932;2022-11-15T03:57:58;98179.03;;;-1.81;57.19
70730;BME280;58315;53.336;55.932;2022-11-15T04:00:43;98173.38;;;-1.88;57.74
70730;BME280;58315;53.336;55.932;2022-11-15T04:03:27;98175.97;;;-1.88;56.65
70730;BME280;58315;53.336;55.932;2022-11-15T04:06:12;98174.97;;;-2.00;57.20
70730;BME280;58315;53.336;55.932;2022-11-15T04:08:56;98184.88;;;-2.06;57.99
70730;BME280;58315;53.336;55.932;2022-11-15T04:11:41;98189.22;;;-2.07;57.64
70730;BME280;58315;53.336;55.932;2022-11-15T04:14:25;98191.63;;;-1.89;57.55
70730;BME280;58315;53.336;55.932;2022-11-15T04:17:09;98190.56;;;-1.87;57.82
70730;BME280;58315;53.336;55.932;2022-11-15T04:19:57;98197.69;;;-1.76;56.90
70730;BME280;58315;53.336;55.932;2022-11-15T04:23:02;98214.91;;;-1.75;57.38
70730;BME280;58315;53.336;55.932;2022-11-15T04:26:08;98204.75;;;-2.07;57.79
70730;BME280;58315;53.336;55.932;2022-11-15T04:28:54;98210.09;;;-1.96;57.11
70730;BME280;58315;53.336;55.932;2022-11-15T04:31:57;98205.47;;;-1.90;57.28
70730;BME280;58315;53.336;55.932;2022-11-15T04:34:41;98209.81;;;-2.05;57.08
70730;BME280;58315;53.336;55.932;2022-11-15T04:37:25;98210.41;;;-2.00;56.79
70730;BME280;58315;53.336;55.932;2022-11-15T04:40:10;98206.41;;;-2.06;56.48
70730;BME280;58315;53.336;55.932;2022-11-15T04:42:55;98206.75;;;-1.98;56.66
70730;BME280;58315;53.336;55.932;2022-11-15T04:45:39;98205.75;;;-2.09;57.29
70730;BME280;58315;53.336;55.932;2022-11-15T04:48:23;98212.69;;;-1.96;56.85
70730;BME280;58315;53.336;55.932;2022-11-15T04:51:07;98216.75;;;-2.06;56.76
70730;BME280;58315;53.336;55.932;2022-11-15T04:53:52;98224.00;;;-1.97;56.25
70730;BME280;58315;53.336;55.932;2022-11-15T04:56:37;98221.75;;;-2.03;56.69
70730;BME280;58315;53.336;55.932;2022-11-15T04:59:21;98224.53;;;-2.20;57.23
70730;BME280;58315;53.336;55.932;2022-11-15T05:02:05;98235.16;;;-2.10;56.91
70730;BME280;58315;53.336;55.932;2022-11-15T05:04:49;98231.94;;;-2.00;57.01
70730;BME280;58315;53.336;55.932;2022-11-15T05:07:34;98239.13;;;-1.90;56.97
70730;BME280;58315;53.336;55.932;2022-11-15T05:10:18;98247.19;;;-1.81;56.92
70730;BME280;58315;53.336;55.932;2022-11-15T05:13:02;98246.03;;;-1.62;56.54
70730;BME280;58315;53.336;55.932;2022-11-15T05:15:47;98236.69;;;-1.65;56.34
70730;BME280;58315;53.336;55.932;2022-11-15T05:18:32;98247.63;;;-1.74;56.50
70730;BME280;58315;53.336;55.932;2022-11-15T05:21:16;98246.88;;;-1.76;56.46
70730;BME280;58315;53.336;55.932;2022-11-15T05:24:01;98241.00;;;-1.92;56.47
70730;BME280;58315;53.336;55.932;2022-11-15T05:26:46;98251.72;;;-1.84;56.11
70730;BME280;58315;53.336;55.932;2022-11-15T05:29:31;98258.00;;;-1.74;56.49
70730;BME280;58315;53.336;55.932;2022-11-15T05:32:16;98259.09;;;-1.64;55.57
70730;BME280;58315;53.336;55.932;2022-11-15T05:35:02;98260.00;;;-1.65;55.04
70730;BME280;58315;53.336;55.932;2022-11-15T05:37:46;98265.84;;;-1.76;55.95
70730;BME280;58315;53.336;55.932;2022-11-15T05:40:32;98275.66;;;-1.66;55.43
70730;BME280;58315;53.336;55.932;2022-11-15T05:43:18;98275.53;;;-1.65;55.78
70730;BME280;58315;53.336;55.932;2022-11-15T05:46:03;98272.31;;;-1.54;55.68
70730;BME280;58315;53.336;55.932;2022-11-15T05:48:50;98275.50;;;-1.36;55.43
70730;BME280;58315;53.336;55.932;2022-11-15T05:51:36;98275.66;;;-1.66;55.87
70730;BME280;58315;53.336;55.932;2022-11-15T05:54:22;98279.88;;;-1.51;56.23
70730;BME280;58315;53.336;55.932;2022-11-15T05:57:07;98298.13;;;-1.38;55.71
70730;BME280;58315;53.336;55.932;2022-11-15T05:59:53;98298.44;;;-1.16;56.08
70730;BME280;58315;53.336;55.932;2022-11-15T06:02:37;98292.22;;;-1.13;55.26
70730;BME280;58315;53.336;55.932;2022-11-15T06:05:22;98289.34;;;-1.09;54.92
70730;BME280;58315;53.336;55.932;2022-11-15T06:08:06;98295.75;;;-0.87;54.73
70730;BME280;58315;53.336;55.932;2022-11-15T06:10:50;98298.78;;;-0.81;54.22
70730;BME280;58315;53.336;55.932;2022-11-15T06:13:34;98302.34;;;-0.96;54.19
70730;BME280;58315;53.336;55.932;2022-11-15T06:16:19;98312.50;;;-1.06;54.34
70730;BME280;58315;53.336;55.932;2022-11-15T06:19:06;98302.75;;;-1.02;54.10
70730;BME280;58315;53.336;55.932;2022-11-15T06:21:50;98315.03;;;-0.91;54.22
70730;BME280;58315;53.336;55.932;2022-11-15T06:24:34;98313.31;;;-0.78;53.81
70730;BME280;58315;53.336;55.932;2022-11-15T06:27:18;98324.31;;;-0.75;54.41
70730;BME280;58315;53.336;55.932;2022-11-15T06:30:03;98312.75;;;-0.69;54.05
70730;BME280;58315;53.336;55.932;2022-11-15T06:32:48;98331.38;;;-0.50;53.63
70730;BME280;58315;53.336;55.932;2022-11-15T06:35:33;98316.63;;;-0.49;52.93
70730;BME280;58315;53.336;55.932;2022-11-15T06:38:18;98333.06;;;-0.36;53.10
70730;BME280;58315;53.336;55.932;2022-11-15T06:41:04;98341.91;;;-0.26;53.11
70730;BME280;58315;53.336;55.932;2022-11-15T06:43:49;98337.22;;;-0.73;53.14
70730;BME280;58315;53.336;55.932;2022-11-15T06:46:34;98339.69;;;-0.71;53.21
70730;BME280;58315;53.336;55.932;2022-11-15T06:49:18;98338.75;;;-0.70;53.83
70730;BME280;58315;53.336;55.932;2022-11-15T06:52:03;98343.03;;;-0.69;53.55
70730;BME280;58315;53.336;55.932;2022-11-15T06:54:47;98345.41;;;-0.66;53.38
70730;BME280;58315;53.336;55.932;2022-11-15T06:57:32;98353.75;;;-0.61;53.37
70730;BME280;58315;53.336;55.932;2022-11-15T07:00:18;98350.09;;;-0.59;53.09
70730;BME280;58315;53.336;55.932;2022-11-15T07:03:03;98347.88;;;-0.51;53.50
70730;BME280;58315;53.336;55.932;2022-11-15T07:05:53;98362.19;;;-0.45;53.02
70730;BME280;58315;53.336;55.932;2022-11-15T07:08:38;98348.94;;;-0.67;52.91
70730;BME280;58315;53.336;55.932;2022-11-15T07:11:22;98368.03;;;-0.41;53.41
70730;BME280;58315;53.336;55.932;2022-11-15T07:14:07;98364.78;;;-0.45;52.60
70730;BME280;58315;53.336;55.932;2022-11-15T07:16:51;98367.22;;;-0.69;52.70
70730;BME280;58315;53.336;55.932;2022-11-15T07:19:36;98358.31;;;-0.65;53.20
70730;BME280;58315;53.336;55.932;2022-11-15T07:22:20;98371.63;;;-0.57;52.69
70730;BME280;58315;53.336;55.932;2022-11-15T07:25:05;98365.16;;;-0.64;52.80
70730;BME280;58315;53.336;55.932;2022-11-15T07:27:59;98373.22;;;-0.68;52.75
70730;BME280;58315;53.336;55.932;2022-11-15T07:30:43;98379.19;;;-0.81;52.71
70730;BME280;58315;53.336;55.932;2022-11-15T07:33:28;98373.41;;;-0.99;53.23
70730;BME280;58315;53.336;55.932;2022-11-15T07:36:12;98384.00;;;-0.75;53.10
70730;BME280;58315;53.336;55.932;2022-11-15T07:38:56;98379.66;;;-0.47;52.49
70730;BME280;58315;53.336;55.932;2022-11-15T07:41:41;98384.16;;;-0.36;52.28
70730;BME280;58315;53.336;55.932;2022-11-15T07:44:27;98381.31;;;-0.06;52.86
70730;BME280;58315;53.336;55.932;2022-11-15T07:47:11;98397.13;;;0.16;52.59
70730;BME280;58315;53.336;55.932;2022-11-15T07:49:56;98395.44;;;0.03;51.96
70730;BME280;58315;53.336;55.932;2022-11-15T07:52:40;98393.78;;;0.02;52.10
70730;BME280;58315;53.336;55.932;2022-11-15T07:55:26;98399.72;;;0.16;51.77
70730;BME280;58315;53.336;55.932;2022-11-15T07:58:12;98398.59;;;0.20;51.90
70730;BME280;58315;53.336;55.932;2022-11-15T08:00:57;98414.59;;;0.27;51.70
70730;BME280;58315;53.336;55.932;2022-11-15T08:03:41;98408.59;;;0.27;51.40
70730;BME280;58315;53.336;55.932;2022-11-15T08:06:26;98413.13;;;0.10;51.51
70730;BME280;58315;53.336;55.932;2022-11-15T08:09:10;98413.50;;;-0.09;51.92
70730;BME280;58315;53.336;55.932;2022-11-15T08:11:54;98416.34;;;0.14;51.45
70730;BME280;58315;53.336;55.932;2022-11-15T08:14:38;98412.56;;;-0.08;51.76
70730;BME280;58315;53.336;55.932;2022-11-15T08:17:26;98422.47;;;0.00;51.79
70730;BME280;58315;53.336;55.932;2022-11-15T08:20:10;98419.50;;;-0.08;51.80
70730;BME280;58315;53.336;55.932;2022-11-15T08:23:00;98422.69;;;0.10;51.71
70730;BME280;58315;53.336;55.932;2022-11-15T08:25:45;98436.91;;;0.04;51.47
70730;BME280;58315;53.336;55.932;2022-11-15T08:28:30;98429.41;;;-0.01;51.14
70730;BME280;58315;53.336;55.932;2022-11-15T08:31:16;98434.06;;;-0.06;51.01
70730;BME280;58315;53.336;55.932;2022-11-15T08:34:02;98442.25;;;0.15;51.02
70730;BME280;58315;53.336;55.932;2022-11-15T08:36:47;98460.84;;;-0.18;51.00
70730;BME280;58315;53.336;55.932;2022-11-15T08:39:31;98454.75;;;-0.31;51.93
70730;BME280;58315;53.336;55.932;2022-11-15T08:42:15;98452.78;;;-0.01;52.41
70730;BME280;58315;53.336;55.932;2022-11-15T08:45:00;98456.78;;;0.18;51.53
70730;BME280;58315;53.336;55.932;2022-11-15T08:47:45;98462.91;;;0.17;51.07
70730;BME280;58315;53.336;55.932;2022-11-15T08:50:30;98469.63;;;0.07;51.88
70730;BME280;58315;53.336;55.932;2022-11-15T08:53:15;98481.47;;;0.11;52.08
70730;BME280;58315;53.336;55.932;2022-11-15T08:55:59;98481.66;;;0.22;51.95
70730;BME280;58315;53.336;55.932;2022-11-15T08:58:43;98481.09;;;0.17;52.07
70730;BME280;58315;53.336;55.932;2022-11-15T09:01:27;98480.94;;;-0.07;52.43
70730;BME280;58315;53.336;55.932;2022-11-15T09:04:12;98485.56;;;-0.12;52.82
70730;BME280;58315;53.336;55.932;2022-11-15T09:06:59;98492.53;;;-0.13;52.20
70730;BME280;58315;53.336;55.932;2022-11-15T09:09:44;98492.19;;;-0.21;51.76
70730;BME280;58315;53.336;55.932;2022-11-15T09:12:29;98495.81;;;-0.23;51.50
70730;BME280;58315;53.336;55.932;2022-11-15T09:15:14;98497.50;;;-0.37;51.23
70730;BME280;58315;53.336;55.932;2022-11-15T09:17:59;98500.03;;;-0.35;51.61
70730;BME280;58315;53.336;55.932;2022-11-15T09:20:43;98507.84;;;-0.78;51.98
70730;BME280;58315;53.336;55.932;2022-11-15T09:23:28;98515.75;;;-0.80;52.83
70730;BME280;58315;53.336;55.932;2022-11-15T09:26:12;98513.22;;;-0.81;52.71
70730;BME280;58315;53.336;55.932;2022-11-15T09:28:57;98509.06;;;-0.84;53.33
70730;BME280;58315;53.336;55.932;2022-11-15T09:31:41;98521.75;;;-0.93;53.32
70730;BME280;58315;53.336;55.932;2022-11-15T09:34:25;98526.78;;;-0.76;53.67
70730;BME280;58315;53.336;55.932;2022-11-15T09:37:10;98526.94;;;-0.65;53.08
70730;BME280;58315;53.336;55.932;2022-11-15T09:39:54;98532.38;;;-0.55;52.63
70730;BME280;58315;53.336;55.932;2022-11-15T09:42:51;98542.03;;;-0.71;52.90
70730;BME280;58315;53.336;55.932;2022-11-15T09:46:00;98537.88;;;-0.74;53.46
70730;BME280;58315;53.336;55.932;2022-11-15T09:48:51;98541.56;;;-0.50;53.60
70730;BME280;58315;53.336;55.932;2022-11-15T09:51:53;98551.59;;;-0.58;52.84
70730;BME280;58315;53.336;55.932;2022-11-15T10:00:08;98558.06;;;-0.79;53.78
70730;BME280;58315;53.336;55.932;2022-11-15T10:05:23;98570.94;;;-0.78;53.98
70730;BME280;58315;53.336;55.932;2022-11-15T10:07:55;98567.88;;;-0.84;53.33
70730;BME280;58315;53.336;55.932;2022-11-15T10:10:30;98566.31;;;-0.87;53.62
70730;BME280;58315;53.336;55.932;2022-11-15T10:13:00;98584.00;;;-0.79;53.90
70730;BME280;58315;53.336;55.932;2022-11-15T10:15:26;98578.44;;;-1.02;54.38
70730;BME280;58315;53.336;55.932;2022-11-15T10:20:27;98583.25;;;-0.95;54.08
70730;BME280;58315;53.336;55.932;2022-11-15T10:25:23;98600.81;;;-1.15;54.55
70730;BME280;58315;53.336;55.932;2022-11-15T10:28:06;98605.59;;;-0.79;53.60
70730;BME280;58315;53.336;55.932;2022-11-15T10:30:50;98615.78;;;-0.76;53.48
70730;BME280;58315;53.336;55.932;2022-11-15T10:33:38;98611.72;;;-0.65;54.70
70730;BME280;58315;53.336;55.932;2022-11-15T10:41:14;98619.50;;;-1.24;54.45
70730;BME280;58315;53.336;55.932;2022-11-15T10:43:41;98621.94;;;-1.07;53.86
70730;BME280;58315;53.336;55.932;2022-11-15T10:46:21;98624.28;;;-1.02;54.30
70730;BME280;58315;53.336;55.932;2022-11-15T10:48:47;98618.84;;;-1.13;53.79
70730;BME280;58315;53.336;55.932;2022-11-15T10:51:25;98633.63;;;-1.00;53.46
70730;BME280;58315;53.336;55.932;2022-11-15T10:53:59;98631.50;;;-0.93;53.53
70730;BME280;58315;53.336;55.932;2022-11-15T10:56:26;98640.88;;;-0.90;53.17
70730;BME280;58315;53.336;55.932;2022-11-15T10:58:55;98638.47;;;-0.93;53.27
70730;BME280;58315;53.336;55.932;2022-11-15T11:01:26;98649.16;;;-0.84;53.53
70730;BME280;58315;53.336;55.932;2022-11-15T11:04:06;98651.44;;;-0.93;52.87
70730;BME280;58315;53.336;55.932;2022-11-15T11:06:54;98655.50;;;-0.89;53.00
70730;BME280;58315;53.336;55.932;2022-11-15T11:09:34;98664.41;;;-0.93;53.32
70730;BME280;58315;53.336;55.932;2022-11-15T11:12:01;98657.53;;;-0.94;52.39
70730;BME280;58315;53.336;55.932;2022-11-15T11:14:33;98663.19;;;-1.02;52.91
70730;BME280;58315;53.336;55.932;2022-11-15T11:19:46;98667.34;;;-0.69;52.17
70730;BME280;58315;53.336;55.932;2022-11-15T11:25:00;98665.78;;;-1.02;51.99
70730;BME280;58315;53.336;55.932;2022-11-15T11:27:43;98686.13;;;-0.96;52.59
70730;BME280;58315;53.336;55.932;2022-11-15T11:30:18;98677.53;;;-0.97;52.17
70730;BME280;58315;53.336;55.932;2022-11-15T11:33:06;98685.31;;;-0.97;52.40
70730;BME280;58315;53.336;55.932;2022-11-15T11:44:10;98698.63;;;-1.03;52.12
70730;BME280;58315;53.336;55.932;2022-11-15T11:46:55;98712.28;;;-1.15;52.07
70730;BME280;58315;53.336;55.932;2022-11-15T11:49:28;98711.34;;;-1.14;53.06
70730;BME280;58315;53.336;55.932;2022-11-15T11:52:04;98717.81;;;-1.05;52.08
70730;BME280;58315;53.336;55.932;2022-11-15T11:54:42;98726.44;;;-1.20;52.15
70730;BME280;58315;53.336;55.932;2022-11-15T12:00:00;98744.75;;;-1.24;52.82
70730;BME280;58315;53.336;55.932;2022-11-15T12:02:41;98737.88;;;-1.25;52.52
70730;BME280;58315;53.336;55.932;2022-11-15T12:08:35;98738.63;;;-1.54;52.76
70730;BME280;58315;53.336;55.932;2022-11-15T12:11:28;98748.44;;;-1.43;52.96
70730;BME280;58315;53.336;55.932;2022-11-15T12:14:04;98753.44;;;-1.25;52.36
70730;BME280;58315;53.336;55.932;2022-11-15T12:16:32;98762.72;;;-1.36;52.54
70730;BME280;58315;53.336;55.932;2022-11-15T12:19:01;98757.78;;;-1.25;52.39
70730;BME280;58315;53.336;55.932;2022-11-15T12:21:41;98763.06;;;-1.27;53.20
70730;BME280;58315;53.336;55.932;2022-11-15T12:24:56;98765.56;;;-1.09;53.09
70730;BME280;58315;53.336;55.932;2022-11-15T12:29:56;98771.34;;;-1.20;52.87
70730;BME280;58315;53.336;55.932;2022-11-15T12:32:28;98766.41;;;-1.40;52.45
70730;BME280;58315;53.336;55.932;2022-11-15T12:34:56;98774.75;;;-1.35;53.21
70730;BME280;58315;53.336;55.932;2022-11-15T12:42:44;98793.25;;;-1.26;52.99
70730;BME280;58315;53.336;55.932;2022-11-15T12:45:32;98799.94;;;-1.22;53.14
70730;BME280;58315;53.336;55.932;2022-11-15T12:56:17;98807.81;;;-1.39;51.82
70730;BME280;58315;53.336;55.932;2022-11-15T12:58:49;98805.84;;;-1.67;52.32
70730;BME280;58315;53.336;55.932;2022-11-15T13:07:02;98811.16;;;-1.70;52.60
70730;BME280;58315;53.336;55.932;2022-11-15T13:11:55;98801.19;;;-1.93;52.91
70730;BME280;58315;53.336;55.932;2022-11-15T13:17:32;98818.06;;;-1.86;53.86
70730;BME280;58315;53.336;55.932;2022-11-15T13:20:11;98821.09;;;-1.78;53.36
70730;BME280;58315;53.336;55.932;2022-11-15T13:22:52;98834.16;;;-1.97;54.42
70730;BME280;58315;53.336;55.932;2022-11-15T13:28:31;98840.03;;;-1.93;54.70
70730;BME280;58315;53.336;55.932;2022-11-15T13:31:03;98841.56;;;-2.07;54.94
70730;BME280;58315;53.336;55.932;2022-11-15T13:33:39;98841.41;;;-2.04;54.45
70730;BME280;58315;53.336;55.932;2022-11-15T13:36:12;98847.66;;;-2.08;54.54
70730;BME280;58315;53.336;55.932;2022-11-15T13:38:40;98846.97;;;-2.11;54.63
70730;BME280;58315;53.336;55.932;2022-11-15T13:41:21;98861.03;;;-2.00;54.82
70730;BME280;58315;53.336;55.932;2022-11-15T13:43:48;98860.88;;;-2.14;54.73
70730;BME280;58315;53.336;55.932;2022-11-15T13:46:20;98866.66;;;-1.91;54.71
70730;BME280;58315;53.336;55.932;2022-11-15T13:48:52;98871.97;;;-1.77;54.46
70730;BME280;58315;53.336;55.932;2022-11-15T13:51:43;98862.97;;;-1.70;54.56
70730;BME280;58315;53.336;55.932;2022-11-15T13:56:42;98872.69;;;-1.91;54.58
70730;BME280;58315;53.336;55.932;2022-11-15T13:59:23;98867.50;;;-1.91;53.55
70730;BME280;58315;53.336;55.932;2022-11-15T14:01:50;98863.88;;;-2.04;53.96
70730;BME280;58315;53.336;55.932;2022-11-15T14:04:19;98869.94;;;-2.05;54.16
70730;BME280;58315;53.336;55.932;2022-11-15T14:06:50;98867.88;;;-1.99;54.34
70730;BME280;58315;53.336;55.932;2022-11-15T14:09:39;98869.09;;;-1.88;54.62
70730;BME280;58315;53.336;55.932;2022-11-15T14:12:26;98877.94;;;-1.75;53.70
70730;BME280;58315;53.336;55.932;2022-11-15T14:14:52;98874.44;;;-2.09;54.26
70730;BME280;58315;53.336;55.932;2022-11-15T14:17:41;98882.03;;;-2.23;54.29
70730;BME280;58315;53.336;55.932;2022-11-15T14:20:38;98877.94;;;-1.92;53.94
70730;BME280;58315;53.336;55.932;2022-11-15T14:23:19;98884.03;;;-1.93;53.99
70730;BME280;58315;53.336;55.932;2022-11-15T14:25:53;98888.34;;;-1.94;54.40
70730;BME280;58315;53.336;55.932;2022-11-15T14:30:50;98890.59;;;-1.86;54.47
70730;BME280;58315;53.336;55.932;2022-11-15T14:35:46;98885.94;;;-1.97;53.83
70730;BME280;58315;53.336;55.932;2022-11-15T14:38:12;98882.59;;;-1.82;54.28
70730;BME280;58315;53.336;55.932;2022-11-15T14:40:39;98896.13;;;-1.94;52.95
70730;BME280;58315;53.336;55.932;2022-11-15T14:43:08;98897.13;;;-1.97;53.94
70730;BME280;58315;53.336;55.932;2022-11-15T14:45:35;98897.19;;;-1.98;54.17
70730;BME280;58315;53.336;55.932;2022-11-15T14:48:01;98895.75;;;-2.21;53.72
70730;BME280;58315;53.336;55.932;2022-11-15T14:50:27;98898.06;;;-2.15;53.84
70730;BME280;58315;53.336;55.932;2022-11-15T14:52:53;98900.66;;;-2.15;54.48
70730;BME280;58315;53.336;55.932;2022-11-15T14:55:27;98908.94;;;-1.91;54.31
70730;BME280;58315;53.336;55.932;2022-11-15T14:57:55;98905.97;;;-2.01;54.24
70730;BME280;58315;53.336;55.932;2022-11-15T15:00:21;98916.78;;;-1.92;53.56
70730;BME280;58315;53.336;55.932;2022-11-15T15:02:48;98909.47;;;-2.19;54.11
70730;BME280;58315;53.336;55.932;2022-11-15T15:05:18;98915.25;;;-1.97;53.90
70730;BME280;58315;53.336;55.932;2022-11-15T15:07:44;98911.91;;;-1.99;54.17
70730;BME280;58315;53.336;55.932;2022-11-15T15:10:11;98911.44;;;-2.07;53.59
70730;BME280;58315;53.336;55.932;2022-11-15T15:12:38;98918.75;;;-1.98;53.29
70730;BME280;58315;53.336;55.932;2022-11-15T15:15:05;98924.69;;;-2.13;53.96
70730;BME280;58315;53.336;55.932;2022-11-15T15:17:32;98924.47;;;-2.08;54.04
70730;BME280;58315;53.336;55.932;2022-11-15T15:19:58;98929.34;;;-1.85;53.77
70730;BME280;58315;53.336;55.932;2022-11-15T15:22:27;98936.63;;;-1.76;53.56
70730;BME280;58315;53.336;55.932;2022-11-15T15:24:55;98935.34;;;-2.02;53.15
70730;BME280;58315;53.336;55.932;2022-11-15T15:27:21;98938.41;;;-1.76;53.41
70730;BME280;58315;53.336;55.932;2022-11-15T15:29:47;98939.75;;;-1.69;52.93
70730;BME280;58315;53.336;55.932;2022-11-15T15:32:13;98939.84;;;-1.88;53.18
70730;BME280;58315;53.336;55.932;2022-11-15T15:34:39;98946.63;;;-2.03;53.20
70730;BME280;58315;53.336;55.932;2022-11-15T15:39:51;98951.88;;;-1.87;53.10
70730;BME280;58315;53.336;55.932;2022-11-15T15:42:18;98951.50;;;-1.97;53.31
70730;BME280;58315;53.336;55.932;2022-11-15T15:44:44;98948.13;;;-2.16;53.35
70730;BME280;58315;53.336;55.932;2022-11-15T15:47:23;98949.13;;;-2.01;53.38
70730;BME280;58315;53.336;55.932;2022-11-15T15:49:50;98957.91;;;-2.04;53.64
70730;BME280;58315;53.336;55.932;2022-11-15T15:52:17;98950.56;;;-2.13;53.59
70730;BME280;58315;53.336;55.932;2022-11-15T15:54:43;98955.56;;;-2.45;53.93
70730;BME280;58315;53.336;55.932;2022-11-15T15:57:12;98974.03;;;-2.52;54.03
70730;BME280;58315;53.336;55.932;2022-11-15T15:59:39;98971.34;;;-2.51;54.41
70730;BME280;58315;53.336;55.932;2022-11-15T16:02:05;98965.78;;;-2.24;54.03
70730;BME280;58315;53.336;55.932;2022-11-15T16:04:31;98970.38;;;-2.12;54.30